sensor_id;sensor_type;location;lat;lon;timestamp;temperature;humidity
56046;DHT22;41913;51.030;3.706;2022-09-09T00:04:13;16.30;99.90
56046;DHT22;41913;51.030;3.706;2022-09-09T00:06:45;16.30;99.90
56046;DHT22;41913;51.030;3.706;2022-09-09T00:09:12;16.10;99.90
56046;DHT22;41913;51.030;3.706;2022-09-09T00:11:40;16.00;99.90
56046;DHT22;41913;51.030;3.706;2022-09-09T00:14:11;16.00;99.90
56046;DHT22;41913;51.030;3.706;2022-09-09T00:16:40;16.10;99.90
56046;DHT22;41913;51.030;3.706;2022-09-09T00:19:15;16.20;99.90
56046;DHT22;41913;51.030;3.706;2022-09-09T00:22:12;16.20;99.90
56046;DHT22;41913;51.030;3.706;2022-09-09T00:27:32;16.00;99.90
56046;DHT22;41913;51.030;3.706;2022-09-09T00:30:20;16.10;99.90
56046;DHT22;41913;51.030;3.706;2022-09-09T00:32:49;15.90;99.90
56046;DHT22;41913;51.030;3.706;2022-09-09T00:37:48;15.70;99.90
56046;DHT22;41913;51.030;3.706;2022-09-09T00:42:52;15.70;99.90
56046;DHT22;41913;51.030;3.706;2022-09-09T00:47:53;15.80;99.90
56046;DHT22;41913;51.030;3.706;2022-09-09T00:53:15;15.80;99.90
56046;DHT22;41913;51.030;3.706;2022-09-09T00:58:08;15.70;99.90
56046;DHT22;41913;51.030;3.706;2022-09-09T01:00:43;15.60;99.90
56046;DHT22;41913;51.030;3.706;2022-09-09T01:14:10;15.60;99.90
56046;DHT22;41913;51.030;3.706;2022-09-09T01:16:37;15.60;99.90
56046;DHT22;41913;51.030;3.706;2022-09-09T01:19:03;15.60;99.90
56046;DHT22;41913;51.030;3.706;2022-09-09T01:21:35;15.50;99.90
56046;DHT22;41913;51.030;3.706;2022-09-09T01:24:22;15.60;99.90
56046;DHT22;41913;51.030;3.706;2022-09-09T01:26:52;15.50;99.90
56046;DHT22;41913;51.030;3.706;2022-09-09T01:29:23;15.40;99.90
56046;DHT22;41913;51.030;3.706;2022-09-09T01:34:19;15.40;99.90
56046;DHT22;41913;51.030;3.706;2022-09-09T01:39:15;15.40;99.90
56046;DHT22;41913;51.030;3.706;2022-09-09T01:41:42;15.50;99.90
56046;DHT22;41913;51.030;3.706;2022-09-09T01:44:08;15.30;99.90
56046;DHT22;41913;51.030;3.706;2022-09-09T01:46:33;15.40;99.90
56046;DHT22;41913;51.030;3.706;2022-09-09T01:48:59;15.50;99.90
56046;DHT22;41913;51.030;3.706;2022-09-09T01:51:26;15.50;99.90
56046;DHT22;41913;51.030;3.706;2022-09-09T01:53:55;15.60;99.90
56046;DHT22;41913;51.030;3.706;2022-09-09T01:56:28;15.50;99.90
56046;DHT22;41913;51.030;3.706;2022-09-09T02:01:35;15.50;99.90
56046;DHT22;41913;51.030;3.706;2022-09-09T02:04:04;15.50;99.90
56046;DHT22;41913;51.030;3.706;2022-09-09T02:06:34;15.30;99.90
56046;DHT22;41913;51.030;3.706;2022-09-09T02:09:02;15.30;99.90
56046;DHT22;41913;51.030;3.706;2022-09-09T02:11:31;15.40;99.90
56046;DHT22;41913;51.030;3.706;2022-09-09T02:14:16;15.40;99.90
56046;DHT22;41913;51.030;3.706;2022-09-09T02:21:42;15.50;99.90
56046;DHT22;41913;51.030;3.706;2022-09-09T02:24:09;15.60;99.90
56046;DHT22;41913;51.030;3.706;2022-09-09T02:26:40;15.60;99.90
56046;DHT22;41913;51.030;3.706;2022-09-09T02:29:18;15.70;99.90
56046;DHT22;41913;51.030;3.706;2022-09-09T02:31:47;15.60;99.90
56046;DHT22;41913;51.030;3.706;2022-09-09T02:34:17;15.70;99.90
56046;DHT22;41913;51.030;3.706;2022-09-09T02:36:45;15.80;99.90
56046;DHT22;41913;51.030;3.706;2022-09-09T02:39:11;15.80;99.90
56046;DHT22;41913;51.030;3.706;2022-09-09T02:41:39;15.80;99.90
56046;DHT22;41913;51.030;3.706;2022-09-09T02:44:08;15.80;99.90
56046;DHT22;41913;51.030;3.706;2022-09-09T02:49:02;15.90;99.90
56046;DHT22;41913;51.030;3.706;2022-09-09T02:51:35;15.90;99.90
56046;DHT22;41913;51.030;3.706;2022-09-09T02:56:35;15.90;99.90
56046;DHT22;41913;51.030;3.706;2022-09-09T02:59:06;15.90;99.90
56046;DHT22;41913;51.030;3.706;2022-09-09T03:01:34;15.80;99.90
56046;DHT22;41913;51.030;3.706;2022-09-09T03:04:02;15.60;99.90
56046;DHT22;41913;51.030;3.706;2022-09-09T03:06:29;15.60;99.90
56046;DHT22;41913;51.030;3.706;2022-09-09T03:08:55;15.60;99.90
56046;DHT22;41913;51.030;3.706;2022-09-09T03:11:23;15.70;99.90
56046;DHT22;41913;51.030;3.706;2022-09-09T03:13:51;15.60;99.90
56046;DHT22;41913;51.030;3.706;2022-09-09T03:16:16;15.60;99.90
56046;DHT22;41913;51.030;3.706;2022-09-09T03:18:43;15.70;99.90
56046;DHT22;41913;51.030;3.706;2022-09-09T03:21:11;15.70;99.90
56046;DHT22;41913;51.030;3.706;2022-09-09T03:23:37;15.70;99.90
56046;DHT22;41913;51.030;3.706;2022-09-09T03:26:04;15.70;99.90
56046;DHT22;41913;51.030;3.706;2022-09-09T03:28:30;15.80;99.90
56046;DHT22;41913;51.030;3.706;2022-09-09T03:31:01;15.80;99.90
56046;DHT22;41913;51.030;3.706;2022-09-09T03:33:27;15.90;99.90
56046;DHT22;41913;51.030;3.706;2022-09-09T03:35:54;15.80;99.90
56046;DHT22;41913;51.030;3.706;2022-09-09T03:38:24;15.80;99.90
56046;DHT22;41913;51.030;3.706;2022-09-09T03:40:56;15.80;99.90
56046;DHT22;41913;51.030;3.706;2022-09-09T03:43:24;15.80;99.90
56046;DHT22;41913;51.030;3.706;2022-09-09T03:45:51;15.80;99.90
56046;DHT22;41913;51.030;3.706;2022-09-09T03:48:16;15.80;99.90
56046;DHT22;41913;51.030;3.706;2022-09-09T03:50:49;15.80;99.90
56046;DHT22;41913;51.030;3.706;2022-09-09T03:55:48;16.00;99.90
56046;DHT22;41913;51.030;3.706;2022-09-09T03:58:16;15.90;99.90
56046;DHT22;41913;51.030;3.706;2022-09-09T04:00:47;15.90;99.90
56046;DHT22;41913;51.030;3.706;2022-09-09T04:03:19;15.90;99.90
56046;DHT22;41913;51.030;3.706;2022-09-09T04:05:48;15.90;99.90
56046;DHT22;41913;51.030;3.706;2022-09-09T04:08:13;15.90;99.90
56046;DHT22;41913;51.030;3.706;2022-09-09T04:10:39;15.90;99.90
56046;DHT22;41913;51.030;3.706;2022-09-09T04:13:06;15.80;99.90
56046;DHT22;41913;51.030;3.706;2022-09-09T04:15:32;15.90;99.90
56046;DHT22;41913;51.030;3.706;2022-09-09T04:18:01;15.90;99.90
56046;DHT22;41913;51.030;3.706;2022-09-09T04:20:26;15.90;99.90
56046;DHT22;41913;51.030;3.706;2022-09-09T04:22:53;15.80;99.90
56046;DHT22;41913;51.030;3.706;2022-09-09T04:25:19;15.80;99.90
56046;DHT22;41913;51.030;3.706;2022-09-09T04:27:45;15.90;99.90
56046;DHT22;41913;51.030;3.706;2022-09-09T04:30:12;15.90;99.90
56046;DHT22;41913;51.030;3.706;2022-09-09T04:32:38;16.00;99.90
56046;DHT22;41913;51.030;3.706;2022-09-09T04:35:06;16.10;99.90
56046;DHT22;41913;51.030;3.706;2022-09-09T04:37:33;16.10;99.90
56046;DHT22;41913;51.030;3.706;2022-09-09T04:40:01;16.00;99.90
56046;DHT22;41913;51.030;3.706;2022-09-09T04:42:28;15.90;99.90
56046;DHT22;41913;51.030;3.706;2022-09-09T04:44:54;15.90;99.90
56046;DHT22;41913;51.030;3.706;2022-09-09T04:47:21;16.00;99.90
56046;DHT22;41913;51.030;3.706;2022-09-09T04:49:46;16.00;99.90
56046;DHT22;41913;51.030;3.706;2022-09-09T04:52:13;16.00;99.90
56046;DHT22;41913;51.030;3.706;2022-09-09T04:54:42;16.00;99.90
56046;DHT22;41913;51.030;3.706;2022-09-09T04:57:10;16.00;99.90
56046;DHT22;41913;51.030;3.706;2022-09-09T04:59:35;15.90;99.90
56046;DHT22;41913;51.030;3.706;2022-09-09T05:02:01;15.90;99.90
56046;DHT22;41913;51.030;3.706;2022-09-09T05:04:28;15.80;99.90
56046;DHT22;41913;51.030;3.706;2022-09-09T05:06:54;15.80;99.90
56046;DHT22;41913;51.030;3.706;2022-09-09T05:09:21;15.80;99.90
56046;DHT22;41913;51.030;3.706;2022-09-09T05:11:47;15.80;99.90
56046;DHT22;41913;51.030;3.706;2022-09-09T05:14:14;15.80;99.90
56046;DHT22;41913;51.030;3.706;2022-09-09T05:16:40;15.80;99.90
56046;DHT22;41913;51.030;3.706;2022-09-09T05:19:05;15.90;99.90
56046;DHT22;41913;51.030;3.706;2022-09-09T05:21:33;15.90;99.90
56046;DHT22;41913;51.030;3.706;2022-09-09T05:23:58;16.00;99.90
56046;DHT22;41913;51.030;3.706;2022-09-09T05:26:25;16.00;99.90
56046;DHT22;41913;51.030;3.706;2022-09-09T05:28:51;16.10;99.90
56046;DHT22;41913;51.030;3.706;2022-09-09T05:31:17;16.10;99.90
56046;DHT22;41913;51.030;3.706;2022-09-09T05:33:43;16.20;99.90
56046;DHT22;41913;51.030;3.706;2022-09-09T05:36:15;16.10;99.90
56046;DHT22;41913;51.030;3.706;2022-09-09T05:38:42;16.10;99.90
56046;DHT22;41913;51.030;3.706;2022-09-09T05:41:08;16.10;99.90
56046;DHT22;41913;51.030;3.706;2022-09-09T05:43:34;16.00;99.90
56046;DHT22;41913;51.030;3.706;2022-09-09T05:48:36;15.90;99.90
56046;DHT22;41913;51.030;3.706;2022-09-09T05:51:02;16.00;99.90
56046;DHT22;41913;51.030;3.706;2022-09-09T05:53:28;16.10;99.90
56046;DHT22;41913;51.030;3.706;2022-09-09T05:55:59;16.20;99.90
56046;DHT22;41913;51.030;3.706;2022-09-09T05:58:25;16.20;99.90
56046;DHT22;41913;51.030;3.706;2022-09-09T06:00:50;16.30;99.90
56046;DHT22;41913;51.030;3.706;2022-09-09T06:03:16;16.20;99.90
56046;DHT22;41913;51.030;3.706;2022-09-09T06:05:42;16.30;99.90
56046;DHT22;41913;51.030;3.706;2022-09-09T06:08:08;16.30;99.90
56046;DHT22;41913;51.030;3.706;2022-09-09T06:10:34;16.30;99.90
56046;DHT22;41913;51.030;3.706;2022-09-09T06:13:00;16.20;99.90
56046;DHT22;41913;51.030;3.706;2022-09-09T06:15:25;16.20;99.90
56046;DHT22;41913;51.030;3.706;2022-09-09T06:17:55;16.20;99.90
56046;DHT22;41913;51.030;3.706;2022-09-09T06:20:21;16.20;99.90
56046;DHT22;41913;51.030;3.706;2022-09-09T06:22:47;16.10;99.90
56046;DHT22;41913;51.030;3.706;2022-09-09T06:25:14;16.10;99.90
56046;DHT22;41913;51.030;3.706;2022-09-09T06:27:40;16.00;99.90
56046;DHT22;41913;51.030;3.706;2022-09-09T06:30:07;16.00;99.90
56046;DHT22;41913;51.030;3.706;2022-09-09T06:32:33;16.00;99.90
56046;DHT22;41913;51.030;3.706;2022-09-09T06:35:00;16.00;99.90
56046;DHT22;41913;51.030;3.706;2022-09-09T06:37:26;16.00;99.90
56046;DHT22;41913;51.030;3.706;2022-09-09T06:39:52;16.10;99.90
56046;DHT22;41913;51.030;3.706;2022-09-09T06:42:19;16.00;99.90
56046;DHT22;41913;51.030;3.706;2022-09-09T06:44:45;16.10;99.90
56046;DHT22;41913;51.030;3.706;2022-09-09T06:47:11;16.20;99.90
56046;DHT22;41913;51.030;3.706;2022-09-09T06:49:36;16.40;99.90
56046;DHT22;41913;51.030;3.706;2022-09-09T06:52:02;16.50;99.90
56046;DHT22;41913;51.030;3.706;2022-09-09T06:54:28;16.60;99.90
56046;DHT22;41913;51.030;3.706;2022-09-09T06:56:55;16.80;99.90
56046;DHT22;41913;51.030;3.706;2022-09-09T06:59:21;17.00;99.90
56046;DHT22;41913;51.030;3.706;2022-09-09T07:01:46;17.40;99.90
56046;DHT22;41913;51.030;3.706;2022-09-09T07:04:12;17.60;99.90
56046;DHT22;41913;51.030;3.706;2022-09-09T07:06:43;17.60;99.90
56046;DHT22;41913;51.030;3.706;2022-09-09T07:09:09;17.50;99.90
56046;DHT22;41913;51.030;3.706;2022-09-09T07:11:42;17.40;99.90
56046;DHT22;41913;51.030;3.706;2022-09-09T07:14:09;17.40;99.90
56046;DHT22;41913;51.030;3.706;2022-09-09T07:16:37;17.30;99.90
56046;DHT22;41913;51.030;3.706;2022-09-09T07:19:03;17.10;99.90
56046;DHT22;41913;51.030;3.706;2022-09-09T07:21:30;16.90;99.90
56046;DHT22;41913;51.030;3.706;2022-09-09T07:23:56;17.00;99.90
56046;DHT22;41913;51.030;3.706;2022-09-09T07:26:24;17.20;99.90
56046;DHT22;41913;51.030;3.706;2022-09-09T07:28:50;17.40;99.90
56046;DHT22;41913;51.030;3.706;2022-09-09T07:31:20;17.50;99.90
56046;DHT22;41913;51.030;3.706;2022-09-09T07:33:46;17.70;99.90
56046;DHT22;41913;51.030;3.706;2022-09-09T07:38:43;17.60;99.90
56046;DHT22;41913;51.030;3.706;2022-09-09T07:41:11;17.80;99.90
56046;DHT22;41913;51.030;3.706;2022-09-09T07:43:41;18.00;99.90
56046;DHT22;41913;51.030;3.706;2022-09-09T07:46:07;18.20;99.90
56046;DHT22;41913;51.030;3.706;2022-09-09T07:48:33;18.10;99.90
56046;DHT22;41913;51.030;3.706;2022-09-09T07:51:19;17.90;99.90
56046;DHT22;41913;51.030;3.706;2022-09-09T07:53:48;17.90;99.90
56046;DHT22;41913;51.030;3.706;2022-09-09T07:56:15;17.80;99.90
56046;DHT22;41913;51.030;3.706;2022-09-09T07:58:47;17.70;99.90
56046;DHT22;41913;51.030;3.706;2022-09-09T08:01:14;17.60;99.90
56046;DHT22;41913;51.030;3.706;2022-09-09T08:03:42;17.50;99.90
56046;DHT22;41913;51.030;3.706;2022-09-09T08:06:08;17.30;99.90
56046;DHT22;41913;51.030;3.706;2022-09-09T08:08:34;17.10;99.90
56046;DHT22;41913;51.030;3.706;2022-09-09T08:11:04;17.10;99.90
56046;DHT22;41913;51.030;3.706;2022-09-09T08:13:30;17.10;99.90
56046;DHT22;41913;51.030;3.706;2022-09-09T08:16:06;17.10;99.90
56046;DHT22;41913;51.030;3.706;2022-09-09T08:18:31;17.20;99.90
56046;DHT22;41913;51.030;3.706;2022-09-09T08:20:57;17.20;99.90
56046;DHT22;41913;51.030;3.706;2022-09-09T08:23:22;17.30;99.90
56046;DHT22;41913;51.030;3.706;2022-09-09T08:25:48;17.30;99.90
56046;DHT22;41913;51.030;3.706;2022-09-09T08:28:15;17.40;99.90
56046;DHT22;41913;51.030;3.706;2022-09-09T08:30:41;17.40;99.90
56046;DHT22;41913;51.030;3.706;2022-09-09T08:33:08;17.40;99.90
56046;DHT22;41913;51.030;3.706;2022-09-09T08:35:34;17.40;99.90
56046;DHT22;41913;51.030;3.706;2022-09-09T08:37:59;17.40;99.90
56046;DHT22;41913;51.030;3.706;2022-09-09T08:40:26;17.50;99.90
56046;DHT22;41913;51.030;3.706;2022-09-09T08:42:54;17.50;99.90
56046;DHT22;41913;51.030;3.706;2022-09-09T08:45:23;17.50;99.90
56046;DHT22;41913;51.030;3.706;2022-09-09T08:50:37;17.40;99.90
56046;DHT22;41913;51.030;3.706;2022-09-09T08:55:45;17.60;99.90
56046;DHT22;41913;51.030;3.706;2022-09-09T08:58:19;17.60;99.90
56046;DHT22;41913;51.030;3.706;2022-09-09T09:00:50;17.70;99.90
56046;DHT22;41913;51.030;3.706;2022-09-09T09:05:57;17.70;99.90
56046;DHT22;41913;51.030;3.706;2022-09-09T09:10:56;18.00;99.90
56046;DHT22;41913;51.030;3.706;2022-09-09T09:13:26;18.10;99.90
56046;DHT22;41913;51.030;3.706;2022-09-09T09:15:59;18.00;99.90
56046;DHT22;41913;51.030;3.706;2022-09-09T09:18:25;18.10;99.90
56046;DHT22;41913;51.030;3.706;2022-09-09T09:21:01;18.30;99.90
56046;DHT22;41913;51.030;3.706;2022-09-09T09:23:39;18.50;99.90
56046;DHT22;41913;51.030;3.706;2022-09-09T09:26:09;18.70;99.90
56046;DHT22;41913;51.030;3.706;2022-09-09T09:28:36;19.00;99.90
56046;DHT22;41913;51.030;3.706;2022-09-09T09:31:12;19.40;99.90
56046;DHT22;41913;51.030;3.706;2022-09-09T09:33:52;19.60;99.90
56046;DHT22;41913;51.030;3.706;2022-09-09T09:36:40;19.80;99.90
56046;DHT22;41913;51.030;3.706;2022-09-09T09:39:08;20.10;99.90
56046;DHT22;41913;51.030;3.706;2022-09-09T09:41:38;19.90;99.90
56046;DHT22;41913;51.030;3.706;2022-09-09T09:44:05;19.40;99.90
56046;DHT22;41913;51.030;3.706;2022-09-09T09:46:32;19.00;99.90
56046;DHT22;41913;51.030;3.706;2022-09-09T09:49:00;18.90;99.90
56046;DHT22;41913;51.030;3.706;2022-09-09T09:51:25;18.90;99.90
56046;DHT22;41913;51.030;3.706;2022-09-09T09:53:52;18.60;99.90
56046;DHT22;41913;51.030;3.706;2022-09-09T09:56:29;18.60;99.90
56046;DHT22;41913;51.030;3.706;2022-09-09T09:58:54;18.70;99.90
56046;DHT22;41913;51.030;3.706;2022-09-09T10:01:27;18.60;99.90
56046;DHT22;41913;51.030;3.706;2022-09-09T10:04:13;18.60;99.90
56046;DHT22;41913;51.030;3.706;2022-09-09T10:06:40;18.60;99.90
56046;DHT22;41913;51.030;3.706;2022-09-09T10:19:40;18.50;99.90
56046;DHT22;41913;51.030;3.706;2022-09-09T10:22:11;18.50;99.90
56046;DHT22;41913;51.030;3.706;2022-09-09T10:27:19;18.70;99.90
56046;DHT22;41913;51.030;3.706;2022-09-09T10:32:40;18.70;99.90
56046;DHT22;41913;51.030;3.706;2022-09-09T10:35:26;18.70;99.90
56046;DHT22;41913;51.030;3.706;2022-09-09T10:48:36;19.00;99.90
56046;DHT22;41913;51.030;3.706;2022-09-09T10:56:12;19.20;99.90
56046;DHT22;41913;51.030;3.706;2022-09-09T10:59:02;19.10;99.90
56046;DHT22;41913;51.030;3.706;2022-09-09T11:01:27;19.00;99.90
56046;DHT22;41913;51.030;3.706;2022-09-09T11:03:56;19.10;99.90
56046;DHT22;41913;51.030;3.706;2022-09-09T11:06:25;19.20;99.90
56046;DHT22;41913;51.030;3.706;2022-09-09T11:08:53;19.40;99.90
56046;DHT22;41913;51.030;3.706;2022-09-09T11:11:35;19.30;99.90
56046;DHT22;41913;51.030;3.706;2022-09-09T11:14:05;19.50;99.90
56046;DHT22;41913;51.030;3.706;2022-09-09T11:21:41;19.80;99.90
56046;DHT22;41913;51.030;3.706;2022-09-09T11:24:13;19.80;99.90
56046;DHT22;41913;51.030;3.706;2022-09-09T11:26:42;20.20;99.90
56046;DHT22;41913;51.030;3.706;2022-09-09T11:29:27;20.40;99.90
56046;DHT22;41913;51.030;3.706;2022-09-09T11:32:20;20.20;99.90
56046;DHT22;41913;51.030;3.706;2022-09-09T11:37:25;20.50;99.90
56046;DHT22;41913;51.030;3.706;2022-09-09T11:40:04;20.40;99.90
56046;DHT22;41913;51.030;3.706;2022-09-09T11:42:33;20.60;99.90
56046;DHT22;41913;51.030;3.706;2022-09-09T11:45:08;20.50;99.90
56046;DHT22;41913;51.030;3.706;2022-09-09T11:47:34;20.60;99.90
56046;DHT22;41913;51.030;3.706;2022-09-09T11:52:41;20.50;99.90
56046;DHT22;41913;51.030;3.706;2022-09-09T11:55:08;20.00;99.90
56046;DHT22;41913;51.030;3.706;2022-09-09T11:57:37;19.80;99.90
56046;DHT22;41913;51.030;3.706;2022-09-09T12:00:03;20.00;99.90
56046;DHT22;41913;51.030;3.706;2022-09-09T12:02:29;20.30;99.90
56046;DHT22;41913;51.030;3.706;2022-09-09T12:05:07;20.60;99.90
56046;DHT22;41913;51.030;3.706;2022-09-09T12:07:51;20.70;99.90
56046;DHT22;41913;51.030;3.706;2022-09-09T12:12:54;21.10;99.90
56046;DHT22;41913;51.030;3.706;2022-09-09T12:15:21;21.20;99.90
56046;DHT22;41913;51.030;3.706;2022-09-09T12:17:48;21.00;99.90
56046;DHT22;41913;51.030;3.706;2022-09-09T12:20:23;20.80;99.90
56046;DHT22;41913;51.030;3.706;2022-09-09T12:28:10;20.90;99.90
56046;DHT22;41913;51.030;3.706;2022-09-09T12:33:22;21.20;99.90
56046;DHT22;41913;51.030;3.706;2022-09-09T12:35:53;20.90;99.90
56046;DHT22;41913;51.030;3.706;2022-09-09T12:38:39;20.90;99.90
56046;DHT22;41913;51.030;3.706;2022-09-09T12:41:05;21.20;99.90
56046;DHT22;41913;51.030;3.706;2022-09-09T12:43:31;21.50;99.90
56046;DHT22;41913;51.030;3.706;2022-09-09T12:46:01;21.20;99.90
56046;DHT22;41913;51.030;3.706;2022-09-09T12:48:46;21.10;99.90
56046;DHT22;41913;51.030;3.706;2022-09-09T12:51:24;21.30;99.90
56046;DHT22;41913;51.030;3.706;2022-09-09T12:53:51;21.10;99.90
56046;DHT22;41913;51.030;3.706;2022-09-09T12:56:20;21.00;99.90
56046;DHT22;41913;51.030;3.706;2022-09-09T12:58:47;20.60;99.90
56046;DHT22;41913;51.030;3.706;2022-09-09T13:01:23;20.50;99.90
56046;DHT22;41913;51.030;3.706;2022-09-09T13:03:49;20.50;99.90
56046;DHT22;41913;51.030;3.706;2022-09-09T13:06:32;20.20;99.90
56046;DHT22;41913;51.030;3.706;2022-09-09T13:09:00;20.10;99.90
56046;DHT22;41913;51.030;3.706;2022-09-09T13:13:54;20.50;99.90
56046;DHT22;41913;51.030;3.706;2022-09-09T13:16:30;20.80;99.90
56046;DHT22;41913;51.030;3.706;2022-09-09T13:18:57;21.20;99.90
56046;DHT22;41913;51.030;3.706;2022-09-09T13:21:39;21.30;99.90
56046;DHT22;41913;51.030;3.706;2022-09-09T13:24:19;21.20;99.90
56046;DHT22;41913;51.030;3.706;2022-09-09T13:26:59;21.30;99.90
56046;DHT22;41913;51.030;3.706;2022-09-09T13:29:27;21.30;99.90
56046;DHT22;41913;51.030;3.706;2022-09-09T13:31:52;21.50;99.90
56046;DHT22;41913;51.030;3.706;2022-09-09T13:34:28;21.40;99.90
56046;DHT22;41913;51.030;3.706;2022-09-09T13:37:01;21.20;99.90
56046;DHT22;41913;51.030;3.706;2022-09-09T13:39:36;21.30;99.90
56046;DHT22;41913;51.030;3.706;2022-09-09T13:42:05;21.30;99.90
56046;DHT22;41913;51.030;3.706;2022-09-09T13:44:36;21.30;99.90
56046;DHT22;41913;51.030;3.706;2022-09-09T13:47:04;21.30;99.90
56046;DHT22;41913;51.030;3.706;2022-09-09T13:49:30;20.90;99.90
56046;DHT22;41913;51.030;3.706;2022-09-09T13:52:08;20.80;99.90
56046;DHT22;41913;51.030;3.706;2022-09-09T13:54:34;20.90;99.90
56046;DHT22;41913;51.030;3.706;2022-09-09T13:57:03;20.90;99.90
56046;DHT22;41913;51.030;3.706;2022-09-09T13:59:30;21.00;99.90
56046;DHT22;41913;51.030;3.706;2022-09-09T14:01:55;21.00;99.90
56046;DHT22;41913;51.030;3.706;2022-09-09T14:04:21;20.90;99.90
56046;DHT22;41913;51.030;3.706;2022-09-09T14:06:49;20.80;99.90
56046;DHT22;41913;51.030;3.706;2022-09-09T14:09:15;20.90;99.90
56046;DHT22;41913;51.030;3.706;2022-09-09T14:11:41;21.00;99.90
56046;DHT22;41913;51.030;3.706;2022-09-09T14:14:07;20.90;99.90
56046;DHT22;41913;51.030;3.706;2022-09-09T14:16:33;21.20;99.90
56046;DHT22;41913;51.030;3.706;2022-09-09T14:18:58;21.00;99.90
56046;DHT22;41913;51.030;3.706;2022-09-09T14:21:24;21.10;99.90
56046;DHT22;41913;51.030;3.706;2022-09-09T14:23:51;21.10;99.90
56046;DHT22;41913;51.030;3.706;2022-09-09T14:26:18;21.20;99.90
56046;DHT22;41913;51.030;3.706;2022-09-09T14:28:46;21.50;99.90
56046;DHT22;41913;51.030;3.706;2022-09-09T14:31:13;21.80;99.90
56046;DHT22;41913;51.030;3.706;2022-09-09T14:33:39;22.10;99.90
56046;DHT22;41913;51.030;3.706;2022-09-09T14:36:05;22.40;99.90
56046;DHT22;41913;51.030;3.706;2022-09-09T14:38:32;22.60;99.90
56046;DHT22;41913;51.030;3.706;2022-09-09T14:40:59;22.60;99.90
56046;DHT22;41913;51.030;3.706;2022-09-09T14:43:25;22.20;99.90
56046;DHT22;41913;51.030;3.706;2022-09-09T14:45:53;22.20;99.90
56046;DHT22;41913;51.030;3.706;2022-09-09T14:48:19;22.10;99.90
56046;DHT22;41913;51.030;3.706;2022-09-09T14:50:47;22.30;99.90
56046;DHT22;41913;51.030;3.706;2022-09-09T14:53:16;22.50;99.90
56046;DHT22;41913;51.030;3.706;2022-09-09T14:55:42;22.50;99.90
56046;DHT22;41913;51.030;3.706;2022-09-09T14:58:08;22.40;99.90
56046;DHT22;41913;51.030;3.706;2022-09-09T15:00:38;22.50;99.90
56046;DHT22;41913;51.030;3.706;2022-09-09T15:03:05;22.60;99.90
56046;DHT22;41913;51.030;3.706;2022-09-09T15:05:37;22.40;99.90
56046;DHT22;41913;51.030;3.706;2022-09-09T15:08:02;22.10;99.90
56046;DHT22;41913;51.030;3.706;2022-09-09T15:10:29;22.00;99.90
56046;DHT22;41913;51.030;3.706;2022-09-09T15:12:56;22.10;99.90
56046;DHT22;41913;51.030;3.706;2022-09-09T15:15:23;21.90;99.90
56046;DHT22;41913;51.030;3.706;2022-09-09T15:17:49;22.00;99.90
56046;DHT22;41913;51.030;3.706;2022-09-09T15:20:14;22.30;99.90
56046;DHT22;41913;51.030;3.706;2022-09-09T15:22:41;22.40;99.90
56046;DHT22;41913;51.030;3.706;2022-09-09T15:25:06;22.20;99.90
56046;DHT22;41913;51.030;3.706;2022-09-09T15:27:33;22.00;99.90
56046;DHT22;41913;51.030;3.706;2022-09-09T15:29:59;21.50;99.90
56046;DHT22;41913;51.030;3.706;2022-09-09T15:32:27;21.30;99.90
56046;DHT22;41913;51.030;3.706;2022-09-09T15:34:53;21.20;99.90
56046;DHT22;41913;51.030;3.706;2022-09-09T15:37:19;21.00;99.90
56046;DHT22;41913;51.030;3.706;2022-09-09T15:39:46;21.00;99.90
56046;DHT22;41913;51.030;3.706;2022-09-09T15:42:11;21.00;99.90
56046;DHT22;41913;51.030;3.706;2022-09-09T15:44:40;21.10;99.90
56046;DHT22;41913;51.030;3.706;2022-09-09T15:47:07;21.00;99.90
56046;DHT22;41913;51.030;3.706;2022-09-09T15:49:35;20.90;99.90
56046;DHT22;41913;51.030;3.706;2022-09-09T15:52:00;20.90;99.90
56046;DHT22;41913;51.030;3.706;2022-09-09T15:54:33;20.90;99.90
56046;DHT22;41913;51.030;3.706;2022-09-09T15:57:01;20.80;99.90
56046;DHT22;41913;51.030;3.706;2022-09-09T15:59:28;20.70;99.90
56046;DHT22;41913;51.030;3.706;2022-09-09T16:01:54;20.80;99.90
56046;DHT22;41913;51.030;3.706;2022-09-09T16:04:20;20.90;99.90
56046;DHT22;41913;51.030;3.706;2022-09-09T16:06:52;20.90;99.90
56046;DHT22;41913;51.030;3.706;2022-09-09T16:09:19;21.00;99.90
56046;DHT22;41913;51.030;3.706;2022-09-09T16:11:45;21.10;99.90
56046;DHT22;41913;51.030;3.706;2022-09-09T16:14:12;21.30;99.90
56046;DHT22;41913;51.030;3.706;2022-09-09T16:16:38;21.30;99.90
56046;DHT22;41913;51.030;3.706;2022-09-09T16:19:07;21.40;99.90
56046;DHT22;41913;51.030;3.706;2022-09-09T16:21:35;21.60;99.90
56046;DHT22;41913;51.030;3.706;2022-09-09T16:24:04;21.90;99.90
56046;DHT22;41913;51.030;3.706;2022-09-09T16:26:32;21.70;99.90
56046;DHT22;41913;51.030;3.706;2022-09-09T16:28:58;21.50;99.90
56046;DHT22;41913;51.030;3.706;2022-09-09T16:31:25;21.40;99.90
56046;DHT22;41913;51.030;3.706;2022-09-09T16:33:51;21.40;99.90
56046;DHT22;41913;51.030;3.706;2022-09-09T16:36:18;21.40;99.90
56046;DHT22;41913;51.030;3.706;2022-09-09T16:38:43;21.40;99.90
56046;DHT22;41913;51.030;3.706;2022-09-09T16:41:10;21.40;99.90
56046;DHT22;41913;51.030;3.706;2022-09-09T16:43:37;21.50;99.90
56046;DHT22;41913;51.030;3.706;2022-09-09T16:46:09;21.40;99.90
56046;DHT22;41913;51.030;3.706;2022-09-09T16:48:36;21.30;99.90
56046;DHT22;41913;51.030;3.706;2022-09-09T16:51:05;21.30;99.90
56046;DHT22;41913;51.030;3.706;2022-09-09T16:53:33;21.20;99.90
56046;DHT22;41913;51.030;3.706;2022-09-09T16:56:09;20.90;99.90
56046;DHT22;41913;51.030;3.706;2022-09-09T16:58:34;21.00;99.90
56046;DHT22;41913;51.030;3.706;2022-09-09T17:01:01;21.00;99.90
56046;DHT22;41913;51.030;3.706;2022-09-09T17:03:29;21.00;99.90
56046;DHT22;41913;51.030;3.706;2022-09-09T17:05:56;21.00;99.90
56046;DHT22;41913;51.030;3.706;2022-09-09T17:08:23;20.50;99.90
56046;DHT22;41913;51.030;3.706;2022-09-09T17:10:49;20.00;99.90
56046;DHT22;41913;51.030;3.706;2022-09-09T17:13:15;19.80;99.90
56046;DHT22;41913;51.030;3.706;2022-09-09T17:15:41;19.70;99.90
56046;DHT22;41913;51.030;3.706;2022-09-09T17:18:10;19.70;99.90
56046;DHT22;41913;51.030;3.706;2022-09-09T17:20:40;19.80;99.90
56046;DHT22;41913;51.030;3.706;2022-09-09T17:23:06;19.90;99.90
56046;DHT22;41913;51.030;3.706;2022-09-09T17:25:32;20.00;99.90
56046;DHT22;41913;51.030;3.706;2022-09-09T17:27:58;20.00;99.90
56046;DHT22;41913;51.030;3.706;2022-09-09T17:30:25;20.10;99.90
56046;DHT22;41913;51.030;3.706;2022-09-09T17:32:51;20.10;99.90
56046;DHT22;41913;51.030;3.706;2022-09-09T17:35:18;20.20;99.90
56046;DHT22;41913;51.030;3.706;2022-09-09T17:37:44;20.20;99.90
56046;DHT22;41913;51.030;3.706;2022-09-09T17:40:10;20.10;99.90